Time;durP1;ratioP1;P1;durP2;ratioP2;P2;SDS_P1;SDS_P2;PMS_P1;PMS_P2;Temp;Humidity;BMP_temperature;BMP_pressure;BME280_temperature;BME280_humidity;BME280_pressure;Samples;Min_cycle;Max_cycle;Signal;HPM_P1;HPM_P2
2023/01/29 09:04:29;;;;;;;10.20;6.33;;;-0.90;99.90;;;;;;5116924;27;20985;-82
2023/01/29 09:07:30;;;;;;;10.00;5.90;;;-1.00;99.90;;;;;;5137296;27;20270;-82
2023/01/29 09:39:58;;;;;;;9.13;5.80;;;-0.70;99.90;;;;;;5138057;27;20274;-82
2023/01/29 09:44:01;;;;;;;8.93;6.27;;;-0.60;99.90;;;;;;5137562;27;20277;-82
2023/01/29 09:47:59;;;;;;;10.07;6.63;;;-0.60;99.90;;;;;;5117834;27;20540;-83
2023/01/29 09:52:05;;;;;;;8.77;6.17;;;-0.50;99.90;;;;;;5096276;27;20291;-84
2023/01/29 09:56:27;;;;;;;7.70;5.90;;;-0.40;99.90;;;;;;5137952;27;20274;-83
2023/01/29 09:59:55;;;;;;;8.23;6.53;;;-0.30;99.90;;;;;;5138830;27;20271;-83
2023/01/29 10:04:13;;;;;;;8.27;6.30;;;-0.50;99.90;;;;;;5136836;27;20278;-83
2023/01/29 10:08:19;;;;;;;10.50;6.83;;;-0.40;99.90;;;;;;5138267;27;20285;-83
2023/01/29 10:12:30;;;;;;;8.63;6.73;;;-0.30;99.90;;;;;;5136819;27;20287;-83
2023/01/29 10:16:13;;;;;;;9.77;7.07;;;-0.20;99.90;;;;;;5137187;27;20278;-83
2023/01/29 10:20:08;;;;;;;8.57;6.57;;;-0.70;99.90;;;;;;5135621;27;20267;-83
2023/01/29 10:24:27;;;;;;;9.07;6.30;;;-0.70;99.90;;;;;;5135468;27;20700;-83
2023/01/29 10:28:36;;;;;;;14.87;9.87;;;-0.60;99.90;;;;;;5114870;27;20554;-83
2023/01/29 10:32:24;;;;;;;11.30;8.03;;;-0.30;99.90;;;;;;5135125;27;20279;-83
2023/01/29 10:36:33;;;;;;;11.67;8.07;;;-0.60;99.90;;;;;;5135674;27;20267;-83
2023/01/29 10:40:45;;;;;;;13.00;8.83;;;-0.70;99.90;;;;;;5136068;27;20271;-83
2023/01/29 10:44:35;;;;;;;12.77;9.03;;;-0.60;99.90;;;;;;5135681;27;20267;-83
2023/01/29 10:48:52;;;;;;;12.33;8.03;;;-0.40;99.90;;;;;;5136557;27;20647;-83
2023/01/29 10:53:07;;;;;;;9.80;7.27;;;-0.50;99.90;;;;;;5136078;27;20289;-83
2023/01/29 10:57:11;;;;;;;10.07;6.87;;;-0.70;99.90;;;;;;5136107;27;20281;-83
2023/01/29 11:00:55;;;;;;;13.33;7.77;;;-0.50;99.90;;;;;;5135882;27;20287;-83
2023/01/29 11:05:57;;;;;;;14.03;8.10;;;-0.40;99.90;;;;;;5136677;27;20273;-83
2023/01/29 11:09:59;;;;;;;10.77;7.30;;;-0.50;99.90;;;;;;5137272;27;20290;-84
2023/01/29 11:13:59;;;;;;;11.20;8.43;;;-0.30;99.90;;;;;;5137075;27;20273;-83
2023/01/29 11:18:02;;;;;;;9.90;7.17;;;-0.50;99.90;;;;;;5137757;27;20274;-83
2023/01/29 11:21:50;;;;;;;10.27;7.43;;;-0.60;99.90;;;;;;5136938;27;20289;-83
2023/01/29 11:25:51;;;;;;;9.97;6.77;;;-0.60;99.90;;;;;;5136448;27;20621;-83
2023/01/29 11:29:49;;;;;;;9.60;6.93;;;-0.70;99.90;;;;;;5136593;27;20293;-83
2023/01/29 11:37:16;;;;;;;11.63;8.40;;;-1.00;99.90;;;;;;5136321;27;20274;-83
2023/01/29 11:40:39;;;;;;;10.63;8.33;;;-0.90;99.90;;;;;;5136058;27;20260;-83
2023/01/29 11:48:18;;;;;;;11.50;7.93;;;-0.60;99.90;;;;;;5136704;27;20732;-82
2023/01/29 11:52:50;;;;;;;11.00;7.87;;;-0.50;99.90;;;;;;5075809;28;20952;-84
2023/01/29 11:55:57;;;;;;;12.60;8.53;;;-0.50;99.90;;;;;;5135862;27;20271;-84
2023/01/29 11:59:47;;;;;;;10.80;7.80;;;-0.30;99.90;;;;;;5136820;27;20263;-84
2023/01/29 12:03:53;;;;;;;10.87;8.50;;;-0.20;99.90;;;;;;5128718;27;20678;-84
2023/01/29 12:07:33;;;;;;;9.57;7.00;;;-0.10;99.90;;;;;;5135445;27;20264;-84
2023/01/29 12:11:33;;;;;;;10.80;7.77;;;-0.10;99.90;;;;;;5135669;27;20764;-83
2023/01/29 12:15:33;;;;;;;10.77;7.67;;;-0.50;99.90;;;;;;5135378;27;20271;-82
2023/01/29 12:19:43;;;;;;;11.83;8.47;;;-0.70;99.90;;;;;;5136166;27;20293;-82
2023/01/29 12:23:50;;;;;;;11.20;7.90;;;-0.70;99.90;;;;;;5135625;27;20271;-82
2023/01/29 12:27:46;;;;;;;13.27;8.97;;;-0.40;99.90;;;;;;5136127;27;20275;-84
2023/01/29 12:30:26;;;;;;;11.43;8.13;;;-0.30;99.90;;;;;;5135795;28;20912;-83
2023/01/29 12:35:46;;;;;;;9.17;6.83;;;-0.60;99.90;;;;;;5114931;27;20528;-82
2023/01/29 12:39:39;;;;;;;8.83;7.00;;;-1.00;99.90;;;;;;5074818;28;20598;-82
2023/01/29 12:43:55;;;;;;;8.70;6.83;;;-0.90;99.90;;;;;;5135713;27;20263;-83
2023/01/29 12:47:50;;;;;;;9.30;6.80;;;-0.70;99.90;;;;;;5136837;27;20271;-82
2023/01/29 12:52:40;;;;;;;9.77;7.57;;;-0.70;99.90;;;;;;5136596;27;20287;-82
2023/01/29 12:56:35;;;;;;;10.07;6.77;;;-0.50;99.90;;;;;;5094930;28;20533;-83
2023/01/29 13:00:28;;;;;;;11.20;7.93;;;-0.50;99.90;;;;;;5075548;28;20551;-82
2023/01/29 13:04:44;;;;;;;8.87;7.10;;;-0.50;99.90;;;;;;5134925;27;20267;-83
2023/01/29 13:10:35;;;;;;;11.77;8.17;;;-0.50;99.90;;;;;;5114820;27;20540;-83
2023/01/29 13:14:36;;;;;;;12.93;9.20;;;-0.40;99.90;;;;;;5135755;27;20274;-83
2023/01/29 13:18:38;;;;;;;19.37;11.93;;;-0.20;99.90;;;;;;5094170;27;20527;-83
2023/01/29 13:22:25;;;;;;;14.50;7.90;;;-0.40;99.90;;;;;;5135102;27;20298;-83
2023/01/29 13:26:04;;;;;;;11.80;8.00;;;-0.40;99.90;;;;;;5135392;27;20271;-83
2023/01/29 13:30:05;;;;;;;12.07;8.00;;;-0.50;99.90;;;;;;5135742;27;20267;-84
2023/01/29 13:34:19;;;;;;;14.70;9.00;;;-0.60;99.90;;;;;;5134914;27;20267;-84
2023/01/29 13:38:05;;;;;;;9.50;8.07;;;-0.60;99.90;;;;;;5135628;27;20270;-84
2023/01/29 13:42:23;;;;;;;12.23;8.37;;;0.40;99.90;;;;;;5135216;27;20301;-83
2023/01/29 13:46:12;;;;;;;13.63;8.50;;;-0.50;99.90;;;;;;5135205;27;20274;-83
2023/01/29 13:50:22;;;;;;;14.47;9.53;;;-0.40;99.90;;;;;;5135245;27;20277;-83
2023/01/29 13:54:02;;;;;;;11.67;8.33;;;-0.40;99.90;;;;;;5135740;27;20278;-83
2023/01/29 13:56:34;;;;;;;10.97;7.97;;;-0.40;99.90;;;;;;5117407;28;20412;-85
2023/01/29 13:59:02;;;;;;;10.40;7.80;;;-0.30;99.90;;;;;;5135786;28;20397;-86
2023/01/29 14:01:46;;;;;;;19.87;12.87;;;-0.10;99.90;;;;;;5123370;28;20439;-85
2023/01/29 14:04:18;;;;;;;11.67;8.57;;;-0.10;99.90;;;;;;5135895;27;20461;-85
2023/01/29 14:06:49;;;;;;;25.17;16.77;;;-0.10;99.90;;;;;;5135376;27;20404;-84
2023/01/29 14:09:36;;;;;;;23.27;18.07;;;-0.20;99.90;;;;;;5135293;27;20397;-83
2023/01/29 14:12:22;;;;;;;13.53;10.10;;;-0.50;99.90;;;;;;5134489;27;20452;-86
2023/01/29 14:14:48;;;;;;;13.30;9.87;;;-0.50;99.90;;;;;;5127805;27;20420;-84
2023/01/29 14:17:16;;;;;;;10.57;8.20;;;-0.50;99.90;;;;;;5134749;28;20750;-83
2023/01/29 14:19:49;;;;;;;10.90;8.23;;;-0.50;99.90;;;;;;5133709;28;20170;-82
2023/01/29 14:22:25;;;;;;;12.50;8.60;;;-0.90;99.90;;;;;;5133229;28;20464;-83
2023/01/29 14:24:59;;;;;;;18.07;11.63;;;-0.90;99.90;;;;;;5134991;27;20846;-82
2023/01/29 14:27:25;;;;;;;11.80;9.13;;;-1.00;99.90;;;;;;5132994;28;20419;-82
2023/01/29 14:29:57;;;;;;;34.90;20.87;;;-1.00;99.90;;;;;;5133340;27;20416;-80
2023/01/29 14:32:24;;;;;;;16.03;10.80;;;-1.00;99.90;;;;;;5133830;27;20239;-81
2023/01/29 14:34:57;;;;;;;17.53;11.40;;;-1.00;99.90;;;;;;5132292;28;20778;-81
2023/01/29 14:37:37;;;;;;;14.00;9.27;;;-0.70;99.90;;;;;;5133902;27;20411;-81
2023/01/29 14:40:20;;;;;;;13.83;10.67;;;-0.60;99.90;;;;;;5132787;28;20517;-81
2023/01/29 14:43:07;;;;;;;46.27;26.13;;;-0.70;99.90;;;;;;5133493;27;20422;-81
2023/01/29 14:45:40;;;;;;;43.00;23.93;;;-0.60;99.90;;;;;;5132597;28;20412;-81
2023/01/29 14:48:09;;;;;;;17.70;12.60;;;-0.90;99.90;;;;;;5133571;27;20401;-81
2023/01/29 14:50:34;;;;;;;17.13;11.57;;;-0.70;99.90;;;;;;5132229;28;20481;-81
2023/01/29 14:53:39;;;;;;;22.43;15.53;;;-0.70;99.90;;;;;;5132355;28;20499;-81
2023/01/29 14:56:10;;;;;;;17.70;12.60;;;-0.60;99.90;;;;;;5133756;27;20173;-82
2023/01/29 14:58:52;;;;;;;17.87;11.90;;;-0.60;99.90;;;;;;5134588;28;20909;-83
2023/01/29 15:01:37;;;;;;;14.33;9.17;;;-0.50;99.90;;;;;;5135538;27;20424;-83
2023/01/29 15:04:22;;;;;;;17.00;11.67;;;-0.50;99.90;;;;;;5128926;27;20412;-83
2023/01/29 15:06:54;;;;;;;19.60;12.87;;;-0.50;99.90;;;;;;5120632;28;20405;-83
2023/01/29 15:09:34;;;;;;;20.73;12.83;;;-0.50;99.90;;;;;;5120471;28;20435;-83
2023/01/29 15:12:12;;;;;;;19.20;12.63;;;-0.50;99.90;;;;;;5120779;28;21028;-83
2023/01/29 15:14:46;;;;;;;16.53;11.80;;;-0.50;99.90;;;;;;5120736;28;20410;-83
2023/01/29 15:17:27;;;;;;;17.93;11.50;;;-0.40;99.90;;;;;;5120134;28;20492;-83
2023/01/29 15:19:55;;;;;;;17.40;10.97;;;-0.60;99.90;;;;;;5119594;28;20441;-82
